This is the latest recevied weather packets stored in our database for station/object IZ2MHJ-3. If no packets are shown the sender has not sent any weather packets the latest 10 day(s).
| Time | Temp. | Humidity | Pressure | Rain* | Wind** | Luminosity | Snow |
|---|---|---|---|---|---|---|---|
| 1787712661 | 21.11° C | 83% | 1017.4 hPa | - | - | - | - |
| 1787711461 | 20.56° C | 84% | 1017.6 hPa | - | - | - | - |
| 1787710260 | 21.11° C | 82% | 1017.4 hPa | - | - | - | - |
| 1787709060 | 21.11° C | 83% | 1017.5 hPa | - | - | - | - |
| 1787707860 | 21.11° C | 82% | 1017.2 hPa | - | - | - | - |
| 1787706659 | 21.11° C | 82% | 1017.2 hPa | - | - | - | - |
| 1787705459 | 21.67° C | 82% | 1017.2 hPa | - | - | - | - |
| 1787704259 | 21.67° C | 82% | 1017.1 hPa | - | - | - | - |
| 1787703058 | 21.67° C | 81% | 1016.8 hPa | - | - | - | - |
| 1787701858 | 21.67° C | 82% | 1016.7 hPa | - | - | - | - |
| 1787700658 | 22.22° C | 82% | 1016.6 hPa | - | - | - | - |
| 1787699457 | 22.22° C | 82% | 1016.4 hPa | - | - | - | - |
| 1787698257 | 22.22° C | 81% | 1016.4 hPa | - | - | - | - |
| 1787697057 | 22.22° C | 81% | 1016.3 hPa | - | - | - | - |
| 1787695857 | 22.78° C | 80% | 1016.1 hPa | - | - | - | - |
| 1787694656 | 22.78° C | 80% | 1015.9 hPa | - | - | - | - |
| 1787693456 | 22.22° C | 81% | 1015.7 hPa | - | - | - | - |
| 1787692256 | 22.78° C | 80% | 1015.7 hPa | - | - | - | - |
| 1787691055 | 22.78° C | 79% | 1015.5 hPa | - | - | - | - |
| 1787689855 | 23.33° C | 77% | 1015.3 hPa | - | - | - | - |
| 1787688655 | 22.78° C | 79% | 1015.1 hPa | - | - | - | - |
| 1787687454 | 23.33° C | 78% | 1014.9 hPa | - | - | - | - |
| 1787686254 | 24.44° C | 74% | 1014.8 hPa | - | - | - | - |
| 1787685054 | 25.56° C | 69% | 1014.4 hPa | - | - | - | - |
| 1787683853 | 25.56° C | 69% | 1014 hPa | - | - | - | - |
* Rain since midnight (hover to see other rain measurements)
** Current wind speed in m/s (hover to see current wind gust speed)